Time;durP1;ratioP1;P1;durP2;ratioP2;P2;SDS_P1;SDS_P2;PMS_P1;PMS_P2;Temp;Humidity;BMP_temperature;BMP_pressure;BME280_temperature;BME280_humidity;BME280_pressure;Samples;Min_cycle;Max_cycle;Signal;HPM_P1;HPM_P2
2023/09/30 00:00:21;;;;;;;13.15;6.30;;;;;;;18.34;50.34;95046.22;4165652;28;20049;-70
2023/09/30 00:02:24;;;;;;;16.27;6.07;;;;;;;18.38;50.25;95044.00;4157745;28;20042;-68
2023/09/30 00:04:27;;;;;;;14.13;6.07;;;;;;;18.44;49.22;95050.38;4173002;28;20091;-69
2023/09/30 00:06:29;;;;;;;14.38;6.78;;;;;;;18.47;49.47;95048.13;4161942;28;20054;-69
2023/09/30 00:08:32;;;;;;;11.80;5.80;;;;;;;18.48;49.63;95046.31;4157854;28;20070;-69
2023/09/30 00:10:35;;;;;;;13.27;5.93;;;;;;;18.52;49.54;95042.19;4153442;28;20124;-67
2023/09/30 00:12:38;;;;;;;16.07;6.30;;;;;;;18.52;49.31;95042.19;4166987;28;20326;-70
2023/09/30 00:14:39;;;;;;;16.70;6.65;;;;;;;18.54;49.54;95045.47;4159975;28;20666;-70
2023/09/30 00:16:41;;;;;;;10.73;5.85;;;;;;;18.52;49.67;95044.84;4161833;28;20056;-69
2023/09/30 00:18:44;;;;;;;11.05;6.45;;;;;;;18.50;49.69;95044.25;4162246;28;20385;-68
2023/09/30 00:20:46;;;;;;;9.60;6.32;;;;;;;18.53;49.71;95036.72;4160509;28;20053;-68
2023/09/30 00:22:48;;;;;;;12.68;5.93;;;;;;;18.56;49.50;95035.47;4149153;28;20061;-68
2023/09/30 00:24:50;;;;;;;11.40;6.20;;;;;;;18.58;49.65;95041.41;4161303;28;20045;-67
2023/09/30 00:26:52;;;;;;;15.63;6.40;;;;;;;18.60;49.62;95039.38;4164382;28;20049;-68
2023/09/30 00:28:54;;;;;;;11.95;6.00;;;;;;;18.62;49.85;95034.69;4157681;28;20136;-68
2023/09/30 00:30:56;;;;;;;20.55;6.20;;;;;;;18.62;49.22;95037.34;4167229;28;20412;-68
2023/09/30 00:32:59;;;;;;;15.32;6.15;;;;;;;18.58;49.21;95028.16;4165160;28;20156;-71
2023/09/30 00:35:01;;;;;;;16.00;6.93;;;;;;;18.55;49.47;95031.22;4165792;28;20057;-68
2023/09/30 00:37:03;;;;;;;15.60;6.35;;;;;;;18.52;49.69;95027.13;4161759;28;20467;-69
2023/09/30 00:39:07;;;;;;;13.93;6.50;;;;;;;18.51;49.69;95032.63;4172261;28;20045;-68
2023/09/30 00:41:09;;;;;;;10.68;5.88;;;;;;;18.49;49.61;95032.81;4160071;28;20088;-69
2023/09/30 00:43:18;;;;;;;19.70;5.93;;;;;;;18.48;49.37;95027.72;4161294;28;20056;-67
2023/09/30 00:45:20;;;;;;;11.80;6.60;;;;;;;18.52;49.28;95036.91;4167836;28;20045;-70
2023/09/30 00:47:23;;;;;;;14.45;6.43;;;;;;;18.54;49.48;95035.72;4170179;28;20076;-68
2023/09/30 00:49:26;;;;;;;12.13;6.80;;;;;;;18.54;49.37;95026.91;4159553;28;20061;-67
2023/09/30 00:51:28;;;;;;;16.35;5.90;;;;;;;18.50;49.58;95033.63;4175285;28;20819;-69
2023/09/30 00:53:31;;;;;;;23.88;6.80;;;;;;;18.50;49.42;95034.47;4173222;28;20471;-69
2023/09/30 00:55:33;;;;;;;15.02;5.88;;;;;;;18.51;49.41;95033.44;4183239;28;20431;-69
2023/09/30 00:57:35;;;;;;;16.90;6.22;;;;;;;18.56;49.48;95032.84;4168010;28;20052;-69
2023/09/30 00:59:39;;;;;;;12.75;6.45;;;;;;;18.57;49.37;95029.19;4163313;28;20045;-72
2023/09/30 01:01:44;;;;;;;9.65;5.95;;;;;;;18.56;49.47;95025.72;4164459;28;20137;-69
2023/09/30 01:03:46;;;;;;;16.30;6.47;;;;;;;18.57;49.32;95030.00;4161232;28;20049;-67
2023/09/30 01:05:49;;;;;;;10.02;6.35;;;;;;;18.58;49.51;95025.50;4157628;28;20497;-69
2023/09/30 01:07:51;;;;;;;10.88;6.07;;;;;;;18.58;49.28;95026.34;4162259;28;20046;-70
2023/09/30 01:09:53;;;;;;;14.23;6.15;;;;;;;18.57;49.27;95023.88;4163244;28;20049;-67
2023/09/30 01:11:55;;;;;;;14.93;5.82;;;;;;;18.56;49.07;95017.75;4158266;28;20069;-68
2023/09/30 01:13:57;;;;;;;10.55;5.65;;;;;;;18.58;49.31;95020.19;4160803;28;20050;-69
2023/09/30 01:16:05;;;;;;;15.43;6.32;;;;;;;18.59;49.27;95019.19;4162624;28;20080;-68
2023/09/30 01:18:07;;;;;;;12.65;5.70;;;;;;;18.61;49.16;95014.50;4162616;28;20140;-67
2023/09/30 01:20:16;;;;;;;11.10;6.28;;;;;;;18.62;49.26;95024.88;4165818;28;20430;-68
2023/09/30 01:22:18;;;;;;;15.00;5.88;;;;;;;18.64;48.86;95022.03;4165247;28;20045;-68
2023/09/30 01:24:19;;;;;;;10.45;6.05;;;;;;;18.63;49.01;95020.41;4166100;28;20084;-70
2023/09/30 01:26:22;;;;;;;20.45;6.03;;;;;;;18.59;48.96;95017.34;4164753;28;20050;-68
2023/09/30 01:28:24;;;;;;;18.95;5.63;;;;;;;18.60;48.93;95018.97;4167944;28;20044;-69
2023/09/30 01:30:26;;;;;;;13.27;5.90;;;;;;;18.59;49.21;95019.19;4162089;28;20107;-69
2023/09/30 01:32:28;;;;;;;14.35;6.15;;;;;;;18.61;49.32;95020.59;4164193;28;20072;-69
2023/09/30 01:34:32;;;;;;;14.98;5.50;;;;;;;18.65;49.48;95018.38;4164296;28;20053;-69
2023/09/30 01:36:36;;;;;;;15.52;6.82;;;;;;;18.69;49.59;95016.97;4165063;28;20526;-68
2023/09/30 01:38:38;;;;;;;14.43;6.47;;;;;;;18.68;49.74;95020.63;4157080;28;20555;-70
2023/09/30 01:40:42;;;;;;;12.68;5.82;;;;;;;18.60;50.07;95015.50;4163694;28;20476;-69
2023/09/30 01:42:44;;;;;;;12.52;6.00;;;;;;;18.60;49.65;95024.25;4164610;28;20731;-70
2023/09/30 01:44:45;;;;;;;13.35;6.35;;;;;;;18.59;49.56;95016.53;4163666;28;20075;-68
2023/09/30 01:46:48;;;;;;;10.85;6.55;;;;;;;18.59;50.14;95019.19;4160007;28;20054;-71
2023/09/30 01:48:50;;;;;;;18.55;5.97;;;;;;;18.55;50.13;95023.25;4159472;28;20045;-68
2023/09/30 01:50:53;;;;;;;13.10;5.88;;;;;;;18.54;50.10;95018.94;4158636;28;20099;-68
2023/09/30 01:52:56;;;;;;;15.60;7.80;;;;;;;18.50;50.55;95018.56;4169689;28;20041;-68
2023/09/30 01:54:58;;;;;;;14.05;7.95;;;;;;;18.52;50.85;95015.69;4169942;28;20085;-69
2023/09/30 01:57:00;;;;;;;11.75;6.68;;;;;;;18.53;50.79;95017.31;4173873;28;20053;-68
2023/09/30 01:59:02;;;;;;;14.70;7.35;;;;;;;18.55;50.50;95015.28;4157531;28;20132;-69
2023/09/30 02:01:04;;;;;;;12.73;6.47;;;;;;;18.57;50.70;95013.25;4163622;28;20132;-69
2023/09/30 02:03:07;;;;;;;12.18;6.45;;;;;;;18.59;50.72;95017.34;4163195;28;20042;-70
2023/09/30 02:05:09;;;;;;;11.47;6.17;;;;;;;18.56;50.94;95014.25;4159136;28;20057;-70
2023/09/30 02:07:11;;;;;;;15.52;7.53;;;;;;;18.54;50.96;95013.63;4161799;28;20290;-72
2023/09/30 02:09:13;;;;;;;11.88;6.90;;;;;;;18.55;50.94;95010.00;4164383;28;20081;-71
2023/09/30 02:11:15;;;;;;;9.88;6.18;;;;;;;18.56;50.88;95014.25;4168583;28;20050;-69
2023/09/30 02:13:17;;;;;;;9.38;6.07;;;;;;;18.58;50.65;95007.75;4160266;28;20123;-71
2023/09/30 02:15:21;;;;;;;12.98;6.72;;;;;;;18.59;50.82;95006.72;4169635;28;20551;-70
2023/09/30 02:17:23;;;;;;;13.45;6.95;;;;;;;18.59;50.81;95011.22;4153315;28;20054;-68
2023/09/30 02:19:27;;;;;;;12.23;6.80;;;;;;;18.59;50.93;95011.22;4170435;28;20068;-69
2023/09/30 02:21:30;;;;;;;16.10;6.30;;;;;;;18.55;50.96;95007.34;4165376;28;20041;-67
2023/09/30 02:23:32;;;;;;;11.50;6.18;;;;;;;18.43;51.57;95012.38;4169180;28;20041;-69
2023/09/30 02:25:33;;;;;;;17.33;6.80;;;;;;;18.32;51.98;95015.63;4162404;28;20484;-67
2023/09/30 02:27:35;;;;;;;16.60;7.22;;;;;;;18.18;52.12;95012.13;4163402;28;20056;-69
2023/09/30 02:29:37;;;;;;;18.65;6.55;;;;;;;18.09;52.13;95014.13;4161284;28;20049;-67
2023/09/30 02:31:39;;;;;;;14.70;6.70;;;;;;;18.06;52.50;95013.69;4166686;28;20427;-69
2023/09/30 02:33:41;;;;;;;16.15;6.60;;;;;;;17.98;52.30;95010.22;4173994;28;20507;-68
2023/09/30 02:35:46;;;;;;;19.02;7.75;;;;;;;17.93;52.66;95012.63;4168942;28;20084;-70
2023/09/30 02:37:51;;;;;;;20.63;7.63;;;;;;;17.85;52.46;95017.25;4170263;28;20053;-68
2023/09/30 02:39:53;;;;;;;14.07;6.70;;;;;;;17.80;52.42;95021.28;4169884;28;20053;-69
2023/09/30 02:41:55;;;;;;;12.35;6.20;;;;;;;17.81;52.62;95024.78;4173876;28;20049;-68
2023/09/30 02:43:57;;;;;;;11.15;6.65;;;;;;;17.83;51.65;95012.16;4173386;28;20469;-69
2023/09/30 02:45:59;;;;;;;16.95;6.50;;;;;;;17.76;51.29;95016.56;4163708;28;20083;-69
2023/09/30 02:48:02;;;;;;;17.08;6.78;;;;;;;17.65;51.83;95022.44;4169753;28;20097;-70
2023/09/30 02:50:06;;;;;;;16.90;6.85;;;;;;;17.43;52.22;95019.03;4160491;28;20056;-68
2023/09/30 02:52:08;;;;;;;15.35;6.18;;;;;;;17.29;52.60;95018.13;4149345;28;20041;-68
2023/09/30 02:54:15;;;;;;;15.40;6.57;;;;;;;17.29;52.74;95018.13;4161832;28;20049;-69
2023/09/30 02:56:18;;;;;;;14.00;6.47;;;;;;;17.33;53.18;95024.66;4168805;28;20038;-69
2023/09/30 02:58:20;;;;;;;11.75;6.15;;;;;;;17.42;52.68;95020.03;4164696;28;20057;-68
2023/09/30 03:00:25;;;;;;;17.15;6.60;;;;;;;17.47;52.68;95015.00;4166286;28;20045;-68
2023/09/30 03:02:28;;;;;;;14.73;6.70;;;;;;;17.48;52.64;95013.97;4157190;28;20053;-68
2023/09/30 03:04:30;;;;;;;16.33;6.32;;;;;;;17.49;52.20;95024.38;4155476;28;20054;-69
2023/09/30 03:06:38;;;;;;;13.48;5.97;;;;;;;17.51;51.67;95010.91;4168368;28;20075;-69
2023/09/30 03:08:41;;;;;;;16.50;6.57;;;;;;;17.54;51.60;95018.50;4165964;28;20133;-69
2023/09/30 03:10:42;;;;;;;14.68;6.55;;;;;;;17.33;52.02;95020.19;4157343;28;20125;-70
2023/09/30 03:12:45;;;;;;;14.90;6.10;;;;;;;17.30;52.35;95017.13;4158544;28;20140;-68
2023/09/30 03:14:48;;;;;;;10.80;6.22;;;;;;;17.32;52.05;95020.41;4165125;28;20424;-68
2023/09/30 03:16:50;;;;;;;12.48;6.13;;;;;;;17.36;51.89;95019.81;4164632;28;20053;-68
2023/09/30 03:18:51;;;;;;;15.75;5.72;;;;;;;17.43;51.73;95013.75;4158773;28;20084;-67
2023/09/30 03:21:00;;;;;;;12.35;5.75;;;;;;;17.43;51.42;95016.41;4162391;28;20141;-67
2023/09/30 03:23:04;;;;;;;12.18;5.88;;;;;;;17.45;51.38;95014.38;4171311;28;20127;-66
2023/09/30 03:25:08;;;;;;;10.80;6.05;;;;;;;17.49;51.16;95011.13;4154168;28;20078;-67
2023/09/30 03:27:10;;;;;;;11.80;6.07;;;;;;;17.54;51.06;95021.16;4161466;28;20049;-69
2023/09/30 03:29:12;;;;;;;13.73;5.95;;;;;;;17.54;51.09;95016.66;4159290;28;20052;-69
2023/09/30 03:31:19;;;;;;;16.92;6.30;;;;;;;17.52;51.22;95016.03;4155871;28;20096;-68
2023/09/30 03:33:24;;;;;;;17.90;5.72;;;;;;;17.50;51.17;95019.91;4158868;28;20058;-68
2023/09/30 03:35:26;;;;;;;11.10;5.68;;;;;;;17.45;51.42;95017.03;4158924;28;20049;-66
2023/09/30 03:37:31;;;;;;;18.17;5.57;;;;;;;17.39;51.72;95014.13;4162666;28;20057;-68
2023/09/30 03:39:33;;;;;;;12.13;5.50;;;;;;;17.40;51.84;95017.56;4161947;28;20057;-68
2023/09/30 03:41:38;;;;;;;15.40;6.03;;;;;;;17.39;52.38;95013.31;4174871;28;20048;-69
2023/09/30 03:43:42;;;;;;;14.15;5.45;;;;;;;17.38;52.32;95004.53;4161444;28;20455;-67
2023/09/30 03:45:45;;;;;;;9.57;5.70;;;;;;;17.40;51.86;95006.97;4161617;28;20120;-69
2023/09/30 03:47:47;;;;;;;10.32;5.50;;;;;;;17.39;51.70;95006.16;4161998;28;20061;-70
2023/09/30 03:49:50;;;;;;;13.23;6.28;;;;;;;17.42;51.44;95009.44;4161964;28;20507;-69
2023/09/30 03:51:53;;;;;;;10.70;5.20;;;;;;;17.43;51.52;95005.81;4168457;28;20111;-69
2023/09/30 03:53:55;;;;;;;12.85;5.85;;;;;;;17.46;51.81;95006.22;4173499;28;20049;-69
2023/09/30 03:55:57;;;;;;;16.33;6.15;;;;;;;17.48;51.42;95009.47;4163782;28;20624;-68
2023/09/30 03:57:59;;;;;;;14.07;6.13;;;;;;;17.46;51.14;95008.84;4171674;28;20041;-68
2023/09/30 04:00:05;;;;;;;12.13;6.15;;;;;;;17.46;51.11;95010.69;4166772;28;20052;-68
2023/09/30 04:02:08;;;;;;;10.75;5.88;;;;;;;17.42;51.64;95009.44;4164163;28;20053;-69
2023/09/30 04:04:10;;;;;;;12.82;5.55;;;;;;;17.37;51.60;95007.38;4155206;28;20124;-69
2023/09/30 04:06:12;;;;;;;13.38;6.88;;;;;;;17.34;51.75;95008.59;4156153;28;20061;-69
2023/09/30 04:08:15;;;;;;;17.20;6.80;;;;;;;17.33;52.02;95006.13;4162825;28;20049;-71
2023/09/30 04:10:17;;;;;;;12.27;6.45;;;;;;;17.37;52.07;95012.69;4162324;28;20512;-69
2023/09/30 04:12:28;;;;;;;17.75;6.28;;;;;;;17.36;52.02;95013.69;4160364;28;20468;-68
2023/09/30 04:14:30;;;;;;;16.77;6.70;;;;;;;17.33;52.50;95017.53;4161653;28;20136;-70
2023/09/30 04:16:32;;;;;;;14.07;5.97;;;;;;;17.27;52.99;95022.78;4161839;28;20484;-69
2023/09/30 04:18:34;;;;;;;15.35;6.57;;;;;;;17.24;53.25;95023.19;4169300;28;20044;-68
2023/09/30 04:20:39;;;;;;;12.23;7.07;;;;;;;17.23;53.24;95016.22;4151818;28;20081;-69
2023/09/30 04:22:41;;;;;;;15.45;6.80;;;;;;;17.19;53.21;95024.56;4161797;28;20056;-69
2023/09/30 04:24:43;;;;;;;10.88;6.32;;;;;;;17.18;53.49;95025.56;4161596;28;20076;-70
2023/09/30 04:26:50;;;;;;;18.08;6.97;;;;;;;17.22;53.67;95025.19;4162757;28;20429;-70
2023/09/30 04:28:53;;;;;;;14.60;7.07;;;;;;;17.22;53.72;95031.31;4164467;28;20045;-70
2023/09/30 04:30:55;;;;;;;13.10;6.78;;;;;;;17.23;53.84;95032.97;4151975;28;20096;-71
2023/09/30 04:32:57;;;;;;;14.57;6.90;;;;;;;17.28;53.96;95037.66;4158820;28;20129;-69
2023/09/30 04:35:00;;;;;;;14.68;7.90;;;;;;;17.24;54.26;95039.88;4161264;28;20080;-69
2023/09/30 04:37:03;;;;;;;20.70;7.90;;;;;;;17.27;54.46;95038.66;4164526;28;20360;-70
2023/09/30 04:39:05;;;;;;;12.85;7.55;;;;;;;17.29;54.51;95039.28;4163425;28;20179;-69
2023/09/30 04:41:07;;;;;;;17.67;7.72;;;;;;;17.26;54.87;95039.69;4163778;28;20680;-68
2023/09/30 04:43:09;;;;;;;18.42;7.65;;;;;;;17.25;54.95;95033.59;4163928;28;20069;-70
2023/09/30 04:45:12;;;;;;;13.13;7.30;;;;;;;17.25;54.84;95044.19;4161653;28;20099;-70
2023/09/30 04:47:15;;;;;;;13.40;8.13;;;;;;;17.23;54.52;95037.41;4159106;28;20112;-70
2023/09/30 04:49:17;;;;;;;17.00;8.77;;;;;;;17.16;55.04;95053.25;4164004;28;20049;-69
2023/09/30 04:51:19;;;;;;;17.75;8.48;;;;;;;17.04;55.91;95050.31;4156579;28;20073;-70
2023/09/30 04:53:23;;;;;;;16.65;8.40;;;;;;;17.05;55.79;95051.13;4170531;28;20562;-70
2023/09/30 04:55:26;;;;;;;21.40;8.30;;;;;;;17.08;56.39;95048.91;4160013;28;20084;-69
2023/09/30 04:57:28;;;;;;;20.23;8.57;;;;;;;17.15;55.74;95056.91;4174104;28;20128;-69
2023/09/30 04:59:29;;;;;;;13.00;7.38;;;;;;;17.17;55.38;95053.06;4161390;28;20050;-69
2023/09/30 05:01:31;;;;;;;19.88;8.18;;;;;;;17.20;55.22;95049.22;4172752;28;20053;-70
2023/09/30 05:03:34;;;;;;;18.10;8.27;;;;;;;17.24;55.05;95054.94;4161413;28;20708;-73
2023/09/30 05:05:36;;;;;;;17.25;8.07;;;;;;;17.19;55.98;95047.59;4167707;28;20384;-72
2023/09/30 05:07:38;;;;;;;22.50;8.38;;;;;;;17.22;55.97;95051.66;4161165;28;20059;-68
2023/09/30 05:09:41;;;;;;;17.05;7.57;;;;;;;17.26;55.49;95058.22;4148966;28;20053;-70
2023/09/30 05:11:44;;;;;;;16.67;8.10;;;;;;;17.25;55.10;95056.56;4160173;28;20049;-72
2023/09/30 05:13:45;;;;;;;16.80;8.02;;;;;;;17.24;55.47;95057.59;4161511;28;20041;-70
2023/09/30 05:15:47;;;;;;;18.15;7.75;;;;;;;17.25;55.62;95065.34;4160289;28;20049;-69
2023/09/30 05:17:49;;;;;;;16.15;7.90;;;;;;;17.27;55.24;95062.50;4149679;28;20593;-72
2023/09/30 05:19:51;;;;;;;13.98;8.43;;;;;;;17.32;54.55;95062.75;4167865;28;20053;-70
2023/09/30 05:21:54;;;;;;;22.03;9.07;;;;;;;17.35;54.43;95057.06;4163578;28;20176;-70
2023/09/30 05:23:58;;;;;;;18.55;8.07;;;;;;;17.46;54.79;95061.00;4161704;28;20124;-68
2023/09/30 05:26:01;;;;;;;14.55;8.13;;;;;;;17.56;54.59;95054.38;4161523;28;20081;-69
2023/09/30 05:28:03;;;;;;;24.50;9.27;;;;;;;17.64;53.90;95055.22;4161260;28;20076;-71
2023/09/30 05:30:07;;;;;;;18.83;8.75;;;;;;;17.73;53.93;95054.06;4162078;28;20435;-74
2023/09/30 05:32:08;;;;;;;10.37;8.33;;;;;;;17.77;53.82;95058.78;4163052;28;20057;-71
2023/09/30 05:34:10;;;;;;;11.98;8.48;;;;;;;17.88;53.38;95059.28;4158077;28;20481;-71
2023/09/30 05:36:13;;;;;;;13.20;8.77;;;;;;;17.95;53.08;95060.13;4151291;28;20053;-71
2023/09/30 05:38:15;;;;;;;22.45;9.43;;;;;;;17.94;52.79;95061.97;4162552;28;20081;-68
2023/09/30 05:40:26;;;;;;;20.48;9.80;;;;;;;17.99;52.79;95064.84;4161251;28;21518;-70
2023/09/30 05:42:29;;;;;;;22.83;9.15;;;;;;;17.96;52.37;95075.84;4150444;28;20053;-70
2023/09/30 05:44:31;;;;;;;17.65;9.43;;;;;;;17.78;52.56;95080.81;4161459;28;20049;-71
2023/09/30 05:46:34;;;;;;;25.70;11.75;;;;;;;17.49;53.25;95076.53;4161666;28;20053;-69
2023/09/30 05:48:38;;;;;;;23.65;11.60;;;;;;;17.46;53.44;95074.25;4154363;28;20055;-72
2023/09/30 05:50:40;;;;;;;24.30;11.10;;;;;;;17.44;53.93;95070.97;4163593;28;20049;-71
2023/09/30 05:52:44;;;;;;;31.67;11.98;;;;;;;17.49;53.61;95072.06;4164310;28;20095;-71
2023/09/30 05:54:46;;;;;;;27.45;11.70;;;;;;;17.70;53.27;95075.66;4169848;28;20076;-70
2023/09/30 05:56:49;;;;;;;30.25;11.38;;;;;;;17.65;53.39;95072.78;4164030;28;20106;-71
2023/09/30 05:58:51;;;;;;;19.27;11.85;;;;;;;17.74;53.11;95071.59;4169291;28;20518;-70
2023/09/30 06:00:53;;;;;;;33.85;11.73;;;;;;;17.77;53.22;95076.53;4170556;28;20344;-70
2023/09/30 06:02:57;;;;;;;29.67;11.50;;;;;;;17.84;53.14;95087.19;4174870;28;20415;-70
2023/09/30 06:05:00;;;;;;;32.03;11.75;;;;;;;17.94;52.94;95077.88;4154566;28;20098;-73
2023/09/30 06:07:02;;;;;;;32.63;11.65;;;;;;;18.09;52.89;95074.28;4166739;28;20068;-72
2023/09/30 06:09:07;;;;;;;22.17;11.43;;;;;;;18.21;52.25;95078.00;4160062;28;20045;-72
2023/09/30 06:11:24;;;;;;;32.90;12.20;;;;;;;18.26;51.84;95086.19;4163677;28;20077;-73
2023/09/30 06:13:28;;;;;;;30.52;12.23;;;;;;;18.15;52.14;95086.75;4157094;28;20046;-73
2023/09/30 06:15:31;;;;;;;28.38;11.85;;;;;;;18.21;52.00;95085.97;4157517;28;20136;-72
2023/09/30 06:17:33;;;;;;;;;;;;;;;18.12;52.10;95089.81;4164424;28;20069;-71
2023/09/30 06:19:37;;;;;;;34.40;13.18;;;;;;;18.20;52.06;95092.28;4157853;28;19921;-70
2023/09/30 06:21:39;;;;;;;37.30;12.52;;;;;;;18.28;51.76;95088.63;4150979;28;20448;-70
2023/09/30 06:23:41;;;;;;;30.63;12.20;;;;;;;18.37;51.58;95090.13;4153225;28;21361;-70
2023/09/30 06:25:43;;;;;;;32.53;12.88;;;;;;;18.35;51.44;95087.66;4162012;28;20128;-71
2023/09/30 06:27:46;;;;;;;24.95;12.68;;;;;;;18.31;51.42;95088.25;4163439;28;20048;-71
2023/09/30 06:29:48;;;;;;;30.48;11.85;;;;;;;18.29;51.50;95096.41;4152560;28;20046;-73
2023/09/30 06:31:51;;;;;;;25.02;11.43;;;;;;;18.35;51.53;95090.31;4161233;28;20099;-72
2023/09/30 06:33:58;;;;;;;28.52;11.18;;;;;;;18.46;50.94;95094.25;4160567;28;20069;-70
2023/09/30 06:36:02;;;;;;;26.60;10.30;;;;;;;18.56;50.66;95096.50;4155318;28;20474;-70
2023/09/30 06:38:05;;;;;;;22.67;10.15;;;;;;;18.63;50.27;95092.88;4150746;28;20050;-70
2023/09/30 06:40:08;;;;;;;28.58;9.98;;;;;;;18.77;49.77;95100.88;4162904;28;20491;-70
2023/09/30 06:42:11;;;;;;;22.42;10.57;;;;;;;18.92;49.83;95093.59;4156565;28;20508;-70
2023/09/30 06:44:12;;;;;;;27.60;10.02;;;;;;;18.96;49.72;95096.66;4159225;28;20489;-72
2023/09/30 06:46:15;;;;;;;27.40;10.60;;;;;;;19.13;49.57;95091.78;4162025;28;20358;-72
2023/09/30 06:48:18;;;;;;;30.25;10.48;;;;;;;19.31;48.96;95096.50;4154425;28;20099;-69
2023/09/30 06:50:21;;;;;;;22.75;9.57;;;;;;;19.49;48.01;95096.72;4163526;28;20060;-71
2023/09/30 06:52:23;;;;;;;;;;;;;;;19.58;46.61;95097.34;4164062;28;20528;-70
2023/09/30 06:54:25;;;;;;;21.15;8.00;;;;;;;19.76;46.79;95091.41;4163112;28;19928;-71
2023/09/30 06:56:28;;;;;;;16.55;7.82;;;;;;;19.68;45.08;95100.41;4167099;28;20082;-69
2023/09/30 06:58:33;;;;;;;;;;;;;;;19.78;45.17;95100.81;4170099;28;20449;-72
2023/09/30 07:00:35;;;;;;;21.85;8.90;;;;;;;19.91;45.42;95104.47;4177821;28;19951;-71
2023/09/30 07:02:38;;;;;;;24.50;8.90;;;;;;;19.96;45.25;95108.16;4167646;28;20116;-70
2023/09/30 07:04:39;;;;;;;14.10;7.88;;;;;;;19.98;44.74;95114.09;4172369;28;20128;-71
2023/09/30 07:06:43;;;;;;;16.77;7.25;;;;;;;20.12;43.82;95106.91;4161904;28;20049;-71
2023/09/30 07:08:45;;;;;;;16.52;7.38;;;;;;;19.96;42.79;95107.31;4171124;28;20165;-70
2023/09/30 07:10:49;;;;;;;21.15;7.43;;;;;;;19.67;43.47;95116.53;4176770;28;20076;-72
2023/09/30 07:12:51;;;;;;;18.60;7.72;;;;;;;19.19;44.99;95118.34;4168271;28;20164;-73
2023/09/30 07:14:54;;;;;;;15.25;8.30;;;;;;;19.05;45.65;95114.03;4172000;28;20264;-72
2023/09/30 07:16:57;;;;;;;22.67;8.55;;;;;;;19.28;45.61;95111.00;4172880;28;20403;-71
2023/09/30 07:18:59;;;;;;;19.70;8.63;;;;;;;19.49;44.91;95112.66;4146140;28;20053;-70
2023/09/30 07:21:02;;;;;;;18.33;7.75;;;;;;;19.57;45.16;95111.63;4164935;28;20056;-70
2023/09/30 07:23:04;;;;;;;26.37;9.07;;;;;;;19.68;45.15;95112.84;4163511;28;20094;-71
2023/09/30 07:25:20;;;;;;;25.55;9.15;;;;;;;19.89;45.00;95106.53;4158269;28;20045;-70
2023/09/30 07:27:21;;;;;;;23.90;9.55;;;;;;;20.12;44.91;95111.41;4150834;28;20128;-71
2023/09/30 07:29:29;;;;;;;27.55;9.30;;;;;;;20.21;44.39;95108.28;4153905;28;20448;-70
2023/09/30 07:31:35;;;;;;;17.10;8.85;;;;;;;20.37;44.38;95103.53;4158441;28;20133;-73
2023/09/30 07:33:37;;;;;;;46.40;18.33;;;;;;;20.25;43.21;95112.16;4161983;28;20995;-72
2023/09/30 07:35:40;;;;;;;21.98;9.95;;;;;;;20.39;43.97;95107.66;4156060;28;20466;-71
2023/09/30 07:37:43;;;;;;;25.15;8.80;;;;;;;20.54;43.33;95115.38;4162318;28;20140;-70
2023/09/30 07:39:45;;;;;;;16.02;7.38;;;;;;;20.75;42.52;95110.78;4161149;28;20061;-71
2023/09/30 07:41:47;;;;;;;20.50;6.57;;;;;;;20.95;42.38;95110.69;4161845;28;20057;-70
2023/09/30 07:43:49;;;;;;;18.88;7.32;;;;;;;21.14;41.96;95109.75;4153675;28;20049;-71
2023/09/30 07:45:51;;;;;;;19.80;6.55;;;;;;;21.34;41.68;95111.47;4155707;28;20072;-72
2023/09/30 07:47:54;;;;;;;18.45;6.97;;;;;;;21.51;41.13;95120.63;4149880;28;20056;-69
2023/09/30 07:49:56;;;;;;;23.55;7.05;;;;;;;21.68;40.96;95118.19;4161894;28;20041;-71
2023/09/30 07:51:59;;;;;;;20.15;8.75;;;;;;;21.71;40.57;95114.31;4162251;28;20041;-72
2023/09/30 07:54:01;;;;;;;37.78;9.45;;;;;;;21.46;40.97;95112.44;4163030;28;20049;-73
2023/09/30 07:56:23;;;;;;;17.75;7.72;;;;;;;21.30;40.89;95113.75;4155625;28;20132;-70
2023/09/30 07:58:26;;;;;;;14.88;7.25;;;;;;;21.34;40.47;95114.13;4166491;28;20481;-71
2023/09/30 08:00:27;;;;;;;27.85;7.22;;;;;;;21.45;40.67;95119.63;4156294;28;20124;-72
2023/09/30 08:02:33;;;;;;;13.18;7.18;;;;;;;21.65;39.72;95122.13;4162079;28;20572;-73
2023/09/30 08:04:35;;;;;;;23.58;7.03;;;;;;;21.82;39.52;95118.91;4159447;28;20397;-71
2023/09/30 08:06:38;;;;;;;22.27;8.27;;;;;;;21.93;39.75;95117.38;4166499;28;20469;-71
2023/09/30 08:08:40;;;;;;;16.83;6.32;;;;;;;22.14;39.31;95113.50;4171292;28;20052;-73
2023/09/30 08:10:43;;;;;;;16.58;6.07;;;;;;;22.12;38.28;95111.03;4162643;28;20068;-71
2023/09/30 08:12:48;;;;;;;14.82;5.13;;;;;;;21.99;38.73;95113.84;4153595;28;20054;-72
2023/09/30 08:14:51;;;;;;;15.95;6.72;;;;;;;22.10;39.27;95115.78;4158273;28;20045;-72
2023/09/30 08:16:53;;;;;;;20.02;6.35;;;;;;;22.24;38.98;95114.66;4162440;28;20074;-71
2023/09/30 08:18:55;;;;;;;15.60;6.03;;;;;;;22.43;38.99;95115.44;4159553;28;20056;-71
2023/09/30 08:20:59;;;;;;;13.02;5.65;;;;;;;22.03;37.53;95115.84;4160926;28;20045;-70
2023/09/30 08:23:01;;;;;;;11.57;5.30;;;;;;;21.97;37.51;95115.91;4154086;28;20053;-70
2023/09/30 08:25:07;;;;;;;14.43;5.40;;;;;;;21.71;38.09;95115.13;4162585;28;20052;-74
2023/09/30 08:27:08;;;;;;;10.02;4.30;;;;;;;21.74;37.97;95116.53;4131320;28;20054;-71
2023/09/30 08:29:10;;;;;;;17.23;4.95;;;;;;;21.78;37.97;95123.06;4165986;28;20049;-72
2023/09/30 08:31:12;;;;;;;19.83;4.80;;;;;;;21.82;38.33;95113.59;4162740;28;20508;-70
2023/09/30 08:33:14;;;;;;;17.98;5.00;;;;;;;21.72;38.02;95114.06;4156747;28;20065;-72
2023/09/30 08:35:16;;;;;;;11.90;5.07;;;;;;;21.93;38.24;95107.53;4152388;28;20056;-70
2023/09/30 08:37:17;;;;;;;14.70;5.65;;;;;;;22.09;37.88;95111.47;4159781;28;20092;-70
2023/09/30 08:39:21;;;;;;;14.82;5.47;;;;;;;22.28;37.34;95107.84;4165241;28;20085;-70
2023/09/30 08:41:34;;;;;;;20.75;6.00;;;;;;;22.50;37.26;95107.38;4162567;28;20107;-73
2023/09/30 08:43:39;;;;;;;20.20;6.53;;;;;;;22.83;37.13;95106.16;4153429;28;20053;-73
2023/09/30 08:45:44;;;;;;;18.98;6.50;;;;;;;22.98;35.51;95103.91;4159230;28;20045;-71
2023/09/30 08:47:50;;;;;;;13.75;6.00;;;;;;;23.09;35.69;95099.66;4151518;28;20049;-72
2023/09/30 08:49:56;;;;;;;18.70;6.50;;;;;;;23.00;35.58;95106.34;4162814;28;20052;-73
2023/09/30 08:51:58;;;;;;;11.20;6.40;;;;;;;23.01;35.92;95094.63;4148671;28;20042;-71
2023/09/30 08:54:03;;;;;;;20.23;6.25;;;;;;;22.82;35.78;95094.66;4171919;28;20483;-71
2023/09/30 08:56:09;;;;;;;16.77;5.85;;;;;;;22.90;36.14;95102.34;4156179;28;20587;-71
2023/09/30 08:58:12;;;;;;;14.95;5.97;;;;;;;23.13;35.67;95103.50;4161130;28;20053;-72
2023/09/30 09:00:14;;;;;;;20.33;6.45;;;;;;;23.16;34.95;95092.34;4177230;28;20191;-72
2023/09/30 09:02:17;;;;;;;14.43;6.63;;;;;;;23.22;34.61;95094.13;4169105;28;20053;-72
2023/09/30 09:04:20;;;;;;;13.55;7.30;;;;;;;23.51;33.79;95094.28;4160609;28;20045;-72
2023/09/30 09:06:25;;;;;;;14.65;6.95;;;;;;;23.75;33.25;95094.31;4164207;28;20144;-72
2023/09/30 09:08:27;;;;;;;17.08;6.78;;;;;;;23.87;33.04;95084.47;4158549;28;20416;-72
2023/09/30 09:10:29;;;;;;;17.73;7.35;;;;;;;23.74;32.22;95088.16;4150723;28;20460;-72
2023/09/30 09:12:33;;;;;;;25.08;7.72;;;;;;;23.89;32.14;95085.06;4151300;28;20061;-73
2023/09/30 09:14:39;;;;;;;14.30;7.88;;;;;;;23.94;31.31;95081.69;4152501;28;20111;-71
2023/09/30 09:16:54;;;;;;;17.95;7.63;;;;;;;23.86;31.11;95081.00;4160199;28;20498;-71
2023/09/30 09:18:56;;;;;;;18.50;8.23;;;;;;;23.79;31.75;95079.47;4160761;28;20416;-71
2023/09/30 09:21:16;;;;;;;18.13;7.25;;;;;;;23.70;31.88;95087.84;4162517;28;20041;-70
2023/09/30 09:23:19;;;;;;;14.10;7.55;;;;;;;23.90;32.10;95078.69;4164676;28;20049;-72
2023/09/30 09:25:22;;;;;;;21.20;7.22;;;;;;;24.13;32.15;95080.50;4157601;28;20538;-73
2023/09/30 09:27:25;;;;;;;14.68;7.45;;;;;;;24.15;31.70;95077.59;4163857;28;20045;-70
2023/09/30 09:29:27;;;;;;;12.25;6.45;;;;;;;24.20;31.85;95083.06;4162896;28;20057;-71
2023/09/30 09:31:35;;;;;;;11.38;5.68;;;;;;;24.10;31.44;95073.75;4164771;28;20092;-70